»·PEaware :: N153PQ KLBB-7TX5

N153PQ :: KLBB-7TX5

FLIGHT INFORMATION

Flight Status: Arrived
Operator: Privately registered:
United States
More flights under this callsign
Pilot: Steve K. (2395)
Aircraft: PIPER PA-28 CHEROKEE ARCHER
(P28A)
More flights by this aircraft type
Origin: KLBB Lubbock Intl
United States
Destination: 7TX5 Mabee Ranch
United States
More flights between these airports :: More routes between these airports
Route: LBB DIRECT
File this flight plan on PilotEdge
Remarks:
Altitude:
(Current/Filed)
6,500ft
Speed:
(Current/Filed)
110kts
Departed: 03-May-15 01:06 PM
Arrived: 03-May-15 01:51 PM
Distance/Time
Traveled:
98nm/0:45
Distance/Time
To Go:
Arrived

Flight Plot

Page will automatically refresh every two minutes.


Map Options




Map Legend


Flown Route
Filed Route
Departure Airport
Arrival Airport
Navaid (VOR, NDB)
Fix

Horizontal Profiles

Position Reports

Time Latitude Longitude Heading Altitude Ground
Speed
03-May-15 13:02 33.524269 -101.853565 178 6498ft 113kts
03-May-15 13:03 33.492704 -101.851228 177 6498ft 113kts
03-May-15 13:04 33.461120 -101.848764 177 6499ft 113kts
03-May-15 13:05 33.430307 -101.839512 167 6498ft 114kts
03-May-15 13:06 33.399506 -101.829345 167 6499ft 114kts
03-May-15 13:07 33.368668 -101.819435 167 6499ft 114kts
03-May-15 13:08 33.337945 -101.809379 167 6499ft 114kts
03-May-15 13:09 33.307076 -101.799403 167 6499ft 114kts
03-May-15 13:10 33.276227 -101.789343 167 6499ft 114kts
03-May-15 13:11 33.245275 -101.781980 194 6493ft 114kts
03-May-15 13:12 33.215079 -101.793271 195 6500ft 114kts
03-May-15 13:13 33.184769 -101.804646 194 6498ft 112kts
03-May-15 13:14 33.155277 -101.816256 195 6486ft 110kts
03-May-15 13:15 33.126186 -101.827524 195 6484ft 109kts
03-May-15 13:16 33.097058 -101.838751 194 6484ft 109kts
03-May-15 13:17 33.067835 -101.849206 194 6485ft 109kts
03-May-15 13:18 33.038768 -101.859244 194 6488ft 108kts
03-May-15 13:19 33.009729 -101.868899 194 6487ft 107kts
03-May-15 13:20 32.980755 -101.878460 194 6487ft 107kts
03-May-15 13:21 32.951902 -101.888068 194 6487ft 107kts
03-May-15 13:22 32.922918 -101.897765 194 6488ft 108kts
03-May-15 13:23 32.894022 -101.908171 195 6489ft 108kts
03-May-15 13:24 32.865185 -101.918812 195 6495ft 108kts
03-May-15 13:25 32.836212 -101.929607 195 6499ft 109kts
03-May-15 13:26 32.807153 -101.940435 195 6499ft 109kts
03-May-15 13:27 32.780102 -101.957310 206 6495ft 111kts
03-May-15 13:28 32.753201 -101.976681 206 6497ft 113kts
03-May-15 13:29 32.726078 -101.996153 206 6498ft 113kts
03-May-15 13:30 32.700082 -102.017797 214 6498ft 115kts
03-May-15 13:31 32.675366 -102.042022 214 6506ft 114kts
03-May-15 13:32 32.650586 -102.066126 214 6508ft 115kts
03-May-15 13:33 32.620641 -102.075502 191 6508ft 112kts
03-May-15 13:34 32.590126 -102.084057 191 6508ft 112kts
03-May-15 13:35 32.559617 -102.092588 191 6509ft 112kts
03-May-15 13:36 32.529110 -102.101111 191 6509ft 112kts
03-May-15 13:37 32.498701 -102.109683 191 6509ft 112kts
03-May-15 13:38 32.468188 -102.118219 191 6509ft 112kts
03-May-15 13:39 32.437701 -102.126829 191 6509ft 112kts
03-May-15 13:40 32.407228 -102.134787 187 6509ft 112kts
03-May-15 13:41 32.376268 -102.140454 187 6510ft 112kts
03-May-15 13:42 32.345336 -102.146117 188 6493ft 112kts
03-May-15 13:43 32.314685 -102.153681 190 5735ft 115kts
03-May-15 13:44 32.283858 -102.160346 181 4435ft 110kts
03-May-15 13:45 32.258659 -102.160438 177 3800ft 68kts
03-May-15 13:47 32.240905 -102.160251 176 3388ft 53kts
03-May-15 13:48 32.226626 -102.160100 172 2919ft 42kts
03-May-15 13:49 32.223713 -102.159990 187 2865ft 0kts
03-May-15 13:50 32.213247 -102.159980 176 3091ft 74kts
03-May-15 13:51 32.193987 -102.161578 183 4075ft 57kts
03-May-15 13:51 32.178094 -102.163840 183 4548ft 85kts
03-May-15 13:52 32.148041 -102.167204 183 4573ft 119kts
03-May-15 13:53 32.115123 -102.170759 172 4561ft 118kts
03-May-15 13:54 32.083206 -102.161956 166 4565ft 117kts
03-May-15 13:55 32.051370 -102.152916 166 4565ft 117kts

Navigation Log

Ident Type
Flight plan parsing failed, navigation log unavailable